sensor_id;sensor_type;location;lat;lon;timestamp;P1;durP1;ratioP1;P2;durP2;ratioP2
57627;SDS011;43451;49.060;10.616;2022-12-07T00:01:19;12.85;;;8.43;;
57627;SDS011;43451;49.060;10.616;2022-12-07T00:03:47;10.75;;;7.85;;
57627;SDS011;43451;49.060;10.616;2022-12-07T00:06:14;13.18;;;8.90;;
57627;SDS011;43451;49.060;10.616;2022-12-07T00:08:41;12.65;;;8.65;;
57627;SDS011;43451;49.060;10.616;2022-12-07T00:11:07;11.73;;;8.18;;
57627;SDS011;43451;49.060;10.616;2022-12-07T00:13:38;13.18;;;8.23;;
57627;SDS011;43451;49.060;10.616;2022-12-07T00:16:05;13.50;;;8.25;;
57627;SDS011;43451;49.060;10.616;2022-12-07T00:18:33;14.93;;;8.80;;
57627;SDS011;43451;49.060;10.616;2022-12-07T00:21:00;14.40;;;8.60;;
57627;SDS011;43451;49.060;10.616;2022-12-07T00:23:29;12.90;;;8.57;;
57627;SDS011;43451;49.060;10.616;2022-12-07T00:25:55;13.85;;;9.02;;
57627;SDS011;43451;49.060;10.616;2022-12-07T00:28:20;12.82;;;9.05;;
57627;SDS011;43451;49.060;10.616;2022-12-07T00:30:45;13.02;;;9.02;;
57627;SDS011;43451;49.060;10.616;2022-12-07T00:33:11;12.68;;;8.65;;
57627;SDS011;43451;49.060;10.616;2022-12-07T00:35:36;13.00;;;8.77;;
57627;SDS011;43451;49.060;10.616;2022-12-07T00:38:02;13.68;;;9.13;;
57627;SDS011;43451;49.060;10.616;2022-12-07T00:40:27;13.75;;;9.15;;
57627;SDS011;43451;49.060;10.616;2022-12-07T00:42:52;13.90;;;8.88;;
57627;SDS011;43451;49.060;10.616;2022-12-07T00:45:18;13.98;;;9.00;;
57627;SDS011;43451;49.060;10.616;2022-12-07T00:47:43;13.05;;;9.38;;
57627;SDS011;43451;49.060;10.616;2022-12-07T00:50:09;14.20;;;9.02;;
57627;SDS011;43451;49.060;10.616;2022-12-07T00:52:34;12.90;;;8.55;;
57627;SDS011;43451;49.060;10.616;2022-12-07T00:55:00;13.07;;;8.82;;
57627;SDS011;43451;49.060;10.616;2022-12-07T00:57:25;14.00;;;9.10;;
57627;SDS011;43451;49.060;10.616;2022-12-07T00:59:50;13.50;;;8.68;;
57627;SDS011;43451;49.060;10.616;2022-12-07T01:02:20;13.13;;;8.85;;
57627;SDS011;43451;49.060;10.616;2022-12-07T01:04:45;12.52;;;8.35;;
57627;SDS011;43451;49.060;10.616;2022-12-07T01:07:11;11.55;;;8.10;;
57627;SDS011;43451;49.060;10.616;2022-12-07T01:09:36;13.75;;;8.70;;
57627;SDS011;43451;49.060;10.616;2022-12-07T01:12:02;12.05;;;8.35;;
57627;SDS011;43451;49.060;10.616;2022-12-07T01:14:27;12.20;;;7.72;;
57627;SDS011;43451;49.060;10.616;2022-12-07T01:16:53;13.18;;;9.00;;
57627;SDS011;43451;49.060;10.616;2022-12-07T01:19:18;12.50;;;8.07;;
57627;SDS011;43451;49.060;10.616;2022-12-07T01:21:44;12.15;;;8.18;;
57627;SDS011;43451;49.060;10.616;2022-12-07T01:24:10;13.93;;;9.02;;
57627;SDS011;43451;49.060;10.616;2022-12-07T01:26:35;12.95;;;8.43;;
57627;SDS011;43451;49.060;10.616;2022-12-07T01:29:01;12.70;;;8.90;;
57627;SDS011;43451;49.060;10.616;2022-12-07T01:31:27;13.73;;;9.15;;
57627;SDS011;43451;49.060;10.616;2022-12-07T01:33:54;14.85;;;9.30;;
57627;SDS011;43451;49.060;10.616;2022-12-07T01:38:58;13.90;;;9.10;;
57627;SDS011;43451;49.060;10.616;2022-12-07T01:41:30;13.10;;;8.80;;
57627;SDS011;43451;49.060;10.616;2022-12-07T01:46:38;14.05;;;8.80;;
57627;SDS011;43451;49.060;10.616;2022-12-07T01:49:04;14.07;;;9.05;;
57627;SDS011;43451;49.060;10.616;2022-12-07T01:51:33;13.32;;;9.32;;
57627;SDS011;43451;49.060;10.616;2022-12-07T01:54:00;14.77;;;9.27;;
57627;SDS011;43451;49.060;10.616;2022-12-07T01:56:26;13.73;;;9.15;;
57627;SDS011;43451;49.060;10.616;2022-12-07T01:58:54;12.02;;;8.35;;
57627;SDS011;43451;49.060;10.616;2022-12-07T02:01:20;14.52;;;9.23;;
57627;SDS011;43451;49.060;10.616;2022-12-07T02:03:46;12.93;;;8.52;;
57627;SDS011;43451;49.060;10.616;2022-12-07T02:06:14;14.10;;;9.45;;
57627;SDS011;43451;49.060;10.616;2022-12-07T02:08:44;12.55;;;8.77;;
57627;SDS011;43451;49.060;10.616;2022-12-07T02:11:11;12.07;;;8.10;;
57627;SDS011;43451;49.060;10.616;2022-12-07T02:13:38;14.00;;;8.88;;
57627;SDS011;43451;49.060;10.616;2022-12-07T02:16:25;12.05;;;8.65;;
57627;SDS011;43451;49.060;10.616;2022-12-07T02:21:45;12.00;;;8.15;;
57627;SDS011;43451;49.060;10.616;2022-12-07T02:35:19;14.00;;;8.35;;
57627;SDS011;43451;49.060;10.616;2022-12-07T02:40:38;13.68;;;9.18;;
57627;SDS011;43451;49.060;10.616;2022-12-07T02:43:24;19.23;;;10.38;;
57627;SDS011;43451;49.060;10.616;2022-12-07T02:45:53;16.50;;;9.85;;
57627;SDS011;43451;49.060;10.616;2022-12-07T02:48:23;14.43;;;9.05;;
57627;SDS011;43451;49.060;10.616;2022-12-07T02:50:50;14.40;;;9.20;;
57627;SDS011;43451;49.060;10.616;2022-12-07T02:56:05;13.82;;;9.05;;
57627;SDS011;43451;49.060;10.616;2022-12-07T02:59:02;15.68;;;9.73;;
57627;SDS011;43451;49.060;10.616;2022-12-07T03:04:39;18.13;;;9.50;;
57627;SDS011;43451;49.060;10.616;2022-12-07T03:07:18;17.05;;;10.38;;
57627;SDS011;43451;49.060;10.616;2022-12-07T03:13:07;18.67;;;10.45;;
57627;SDS011;43451;49.060;10.616;2022-12-07T03:15:54;17.25;;;10.25;;
57627;SDS011;43451;49.060;10.616;2022-12-07T03:18:28;17.17;;;10.07;;
57627;SDS011;43451;49.060;10.616;2022-12-07T03:20:58;16.65;;;9.82;;
57627;SDS011;43451;49.060;10.616;2022-12-07T03:23:27;17.65;;;10.02;;
57627;SDS011;43451;49.060;10.616;2022-12-07T03:25:55;17.90;;;10.60;;
57627;SDS011;43451;49.060;10.616;2022-12-07T03:28:26;18.23;;;10.25;;
57627;SDS011;43451;49.060;10.616;2022-12-07T03:33:29;15.77;;;9.63;;
57627;SDS011;43451;49.060;10.616;2022-12-07T03:44:37;15.60;;;9.05;;
57627;SDS011;43451;49.060;10.616;2022-12-07T03:47:26;18.50;;;10.18;;
57627;SDS011;43451;49.060;10.616;2022-12-07T03:50:31;15.57;;;9.38;;
57627;SDS011;43451;49.060;10.616;2022-12-07T03:53:21;16.67;;;9.10;;
57627;SDS011;43451;49.060;10.616;2022-12-07T03:55:54;15.80;;;9.32;;
57627;SDS011;43451;49.060;10.616;2022-12-07T03:58:21;15.80;;;9.15;;
57627;SDS011;43451;49.060;10.616;2022-12-07T04:00:48;15.80;;;9.57;;
57627;SDS011;43451;49.060;10.616;2022-12-07T04:03:15;15.07;;;9.18;;
57627;SDS011;43451;49.060;10.616;2022-12-07T04:05:40;15.50;;;9.48;;
57627;SDS011;43451;49.060;10.616;2022-12-07T04:08:07;15.27;;;9.15;;
57627;SDS011;43451;49.060;10.616;2022-12-07T04:10:32;15.73;;;9.63;;
57627;SDS011;43451;49.060;10.616;2022-12-07T04:12:58;16.75;;;10.02;;
57627;SDS011;43451;49.060;10.616;2022-12-07T04:15:23;16.40;;;9.52;;
57627;SDS011;43451;49.060;10.616;2022-12-07T04:17:49;20.30;;;10.30;;
57627;SDS011;43451;49.060;10.616;2022-12-07T04:20:14;17.08;;;10.02;;
57627;SDS011;43451;49.060;10.616;2022-12-07T04:22:40;17.58;;;10.48;;
57627;SDS011;43451;49.060;10.616;2022-12-07T04:25:05;18.10;;;10.65;;
57627;SDS011;43451;49.060;10.616;2022-12-07T04:27:31;18.98;;;10.75;;
57627;SDS011;43451;49.060;10.616;2022-12-07T04:29:57;20.67;;;11.10;;
57627;SDS011;43451;49.060;10.616;2022-12-07T04:32:22;19.83;;;11.15;;
57627;SDS011;43451;49.060;10.616;2022-12-07T04:34:48;20.52;;;11.13;;
57627;SDS011;43451;49.060;10.616;2022-12-07T04:37:13;19.98;;;11.55;;
57627;SDS011;43451;49.060;10.616;2022-12-07T04:39:39;18.38;;;10.65;;
57627;SDS011;43451;49.060;10.616;2022-12-07T04:42:04;19.25;;;11.32;;
57627;SDS011;43451;49.060;10.616;2022-12-07T04:44:30;18.30;;;10.88;;
57627;SDS011;43451;49.060;10.616;2022-12-07T04:46:56;18.25;;;10.30;;
57627;SDS011;43451;49.060;10.616;2022-12-07T04:49:22;17.05;;;9.95;;
57627;SDS011;43451;49.060;10.616;2022-12-07T04:51:48;19.50;;;10.48;;
57627;SDS011;43451;49.060;10.616;2022-12-07T04:54:14;17.83;;;10.10;;
57627;SDS011;43451;49.060;10.616;2022-12-07T04:56:40;18.83;;;10.57;;
57627;SDS011;43451;49.060;10.616;2022-12-07T04:59:05;16.58;;;10.20;;
57627;SDS011;43451;49.060;10.616;2022-12-07T05:01:32;19.35;;;11.18;;
57627;SDS011;43451;49.060;10.616;2022-12-07T05:03:58;19.17;;;11.10;;
57627;SDS011;43451;49.060;10.616;2022-12-07T05:06:24;20.38;;;10.85;;
57627;SDS011;43451;49.060;10.616;2022-12-07T05:08:49;21.20;;;10.93;;
57627;SDS011;43451;49.060;10.616;2022-12-07T05:11:15;17.95;;;10.73;;
57627;SDS011;43451;49.060;10.616;2022-12-07T05:14:00;20.02;;;11.02;;
57627;SDS011;43451;49.060;10.616;2022-12-07T05:16:26;19.92;;;10.70;;
57627;SDS011;43451;49.060;10.616;2022-12-07T05:18:52;19.80;;;11.40;;
57627;SDS011;43451;49.060;10.616;2022-12-07T05:21:17;19.13;;;10.82;;
57627;SDS011;43451;49.060;10.616;2022-12-07T05:23:43;17.13;;;10.40;;
57627;SDS011;43451;49.060;10.616;2022-12-07T05:26:08;20.33;;;11.10;;
57627;SDS011;43451;49.060;10.616;2022-12-07T05:28:34;20.80;;;11.68;;
57627;SDS011;43451;49.060;10.616;2022-12-07T05:31:00;20.35;;;11.07;;
57627;SDS011;43451;49.060;10.616;2022-12-07T05:33:26;21.00;;;11.13;;
57627;SDS011;43451;49.060;10.616;2022-12-07T05:35:51;20.67;;;11.18;;
57627;SDS011;43451;49.060;10.616;2022-12-07T05:38:16;21.40;;;11.65;;
57627;SDS011;43451;49.060;10.616;2022-12-07T05:40:42;20.85;;;11.05;;
57627;SDS011;43451;49.060;10.616;2022-12-07T05:43:07;20.27;;;11.38;;
57627;SDS011;43451;49.060;10.616;2022-12-07T05:45:34;20.55;;;11.70;;
57627;SDS011;43451;49.060;10.616;2022-12-07T05:47:59;19.98;;;10.88;;
57627;SDS011;43451;49.060;10.616;2022-12-07T05:50:25;21.88;;;12.00;;
57627;SDS011;43451;49.060;10.616;2022-12-07T05:52:50;19.13;;;10.80;;
57627;SDS011;43451;49.060;10.616;2022-12-07T05:55:16;20.25;;;11.75;;
57627;SDS011;43451;49.060;10.616;2022-12-07T05:57:41;24.35;;;12.90;;
57627;SDS011;43451;49.060;10.616;2022-12-07T06:00:29;24.60;;;12.07;;
57627;SDS011;43451;49.060;10.616;2022-12-07T06:02:55;23.13;;;12.77;;
57627;SDS011;43451;49.060;10.616;2022-12-07T06:05:20;22.55;;;11.93;;
57627;SDS011;43451;49.060;10.616;2022-12-07T06:07:45;21.08;;;11.38;;
57627;SDS011;43451;49.060;10.616;2022-12-07T06:10:11;23.42;;;12.45;;
57627;SDS011;43451;49.060;10.616;2022-12-07T06:12:36;21.02;;;11.85;;
57627;SDS011;43451;49.060;10.616;2022-12-07T06:15:04;22.70;;;12.10;;
57627;SDS011;43451;49.060;10.616;2022-12-07T06:17:30;22.55;;;12.13;;
57627;SDS011;43451;49.060;10.616;2022-12-07T06:19:56;20.98;;;11.68;;
57627;SDS011;43451;49.060;10.616;2022-12-07T06:22:21;21.17;;;11.82;;
57627;SDS011;43451;49.060;10.616;2022-12-07T06:24:47;23.60;;;12.65;;
57627;SDS011;43451;49.060;10.616;2022-12-07T06:27:12;21.30;;;11.65;;
57627;SDS011;43451;49.060;10.616;2022-12-07T06:29:38;22.02;;;12.32;;
57627;SDS011;43451;49.060;10.616;2022-12-07T06:32:04;21.75;;;12.18;;
57627;SDS011;43451;49.060;10.616;2022-12-07T06:34:30;22.17;;;11.93;;
57627;SDS011;43451;49.060;10.616;2022-12-07T06:36:55;24.08;;;11.95;;
57627;SDS011;43451;49.060;10.616;2022-12-07T06:39:21;23.00;;;11.82;;
57627;SDS011;43451;49.060;10.616;2022-12-07T06:41:48;22.02;;;11.52;;
57627;SDS011;43451;49.060;10.616;2022-12-07T06:44:14;23.92;;;11.88;;
57627;SDS011;43451;49.060;10.616;2022-12-07T06:46:40;21.50;;;11.98;;
57627;SDS011;43451;49.060;10.616;2022-12-07T06:49:05;22.80;;;12.45;;
57627;SDS011;43451;49.060;10.616;2022-12-07T06:51:31;22.05;;;11.90;;
57627;SDS011;43451;49.060;10.616;2022-12-07T06:53:57;20.13;;;11.10;;
57627;SDS011;43451;49.060;10.616;2022-12-07T06:56:22;22.27;;;11.93;;
57627;SDS011;43451;49.060;10.616;2022-12-07T06:58:48;23.30;;;11.77;;
57627;SDS011;43451;49.060;10.616;2022-12-07T07:01:14;21.35;;;11.23;;
57627;SDS011;43451;49.060;10.616;2022-12-07T07:03:42;21.50;;;12.30;;
57627;SDS011;43451;49.060;10.616;2022-12-07T07:06:08;20.85;;;11.52;;
57627;SDS011;43451;49.060;10.616;2022-12-07T07:08:35;22.08;;;11.65;;
57627;SDS011;43451;49.060;10.616;2022-12-07T07:11:01;21.02;;;11.45;;
57627;SDS011;43451;49.060;10.616;2022-12-07T07:13:26;20.70;;;11.68;;
57627;SDS011;43451;49.060;10.616;2022-12-07T07:15:52;21.90;;;11.77;;
57627;SDS011;43451;49.060;10.616;2022-12-07T07:18:18;21.27;;;11.13;;
57627;SDS011;43451;49.060;10.616;2022-12-07T07:20:44;25.05;;;12.43;;
57627;SDS011;43451;49.060;10.616;2022-12-07T07:23:09;21.90;;;11.80;;
57627;SDS011;43451;49.060;10.616;2022-12-07T07:25:35;23.55;;;12.95;;
57627;SDS011;43451;49.060;10.616;2022-12-07T07:28:01;22.00;;;12.00;;
57627;SDS011;43451;49.060;10.616;2022-12-07T07:30:26;20.85;;;11.52;;
57627;SDS011;43451;49.060;10.616;2022-12-07T07:32:56;24.02;;;13.30;;
57627;SDS011;43451;49.060;10.616;2022-12-07T07:35:31;24.35;;;13.13;;
57627;SDS011;43451;49.060;10.616;2022-12-07T07:37:57;22.10;;;12.13;;
57627;SDS011;43451;49.060;10.616;2022-12-07T07:40:24;23.70;;;12.52;;
57627;SDS011;43451;49.060;10.616;2022-12-07T07:42:50;26.05;;;13.40;;
57627;SDS011;43451;49.060;10.616;2022-12-07T07:45:18;27.13;;;13.30;;
57627;SDS011;43451;49.060;10.616;2022-12-07T07:47:44;26.48;;;13.20;;
57627;SDS011;43451;49.060;10.616;2022-12-07T07:50:10;26.25;;;13.07;;
57627;SDS011;43451;49.060;10.616;2022-12-07T07:52:35;26.23;;;13.32;;
57627;SDS011;43451;49.060;10.616;2022-12-07T07:55:00;25.63;;;13.60;;
57627;SDS011;43451;49.060;10.616;2022-12-07T07:57:26;35.20;;;14.07;;
57627;SDS011;43451;49.060;10.616;2022-12-07T07:59:52;23.92;;;13.18;;
57627;SDS011;43451;49.060;10.616;2022-12-07T08:02:18;26.92;;;13.77;;
57627;SDS011;43451;49.060;10.616;2022-12-07T08:04:46;24.83;;;12.82;;
57627;SDS011;43451;49.060;10.616;2022-12-07T08:07:12;25.90;;;13.10;;
57627;SDS011;43451;49.060;10.616;2022-12-07T08:09:39;23.57;;;12.60;;
57627;SDS011;43451;49.060;10.616;2022-12-07T08:12:04;24.00;;;12.38;;
57627;SDS011;43451;49.060;10.616;2022-12-07T08:14:30;24.92;;;12.20;;
57627;SDS011;43451;49.060;10.616;2022-12-07T08:16:56;24.02;;;12.30;;
57627;SDS011;43451;49.060;10.616;2022-12-07T08:19:22;28.10;;;13.38;;
57627;SDS011;43451;49.060;10.616;2022-12-07T08:21:48;21.88;;;12.25;;
57627;SDS011;43451;49.060;10.616;2022-12-07T08:24:13;21.35;;;11.65;;
57627;SDS011;43451;49.060;10.616;2022-12-07T08:26:39;23.27;;;11.95;;
57627;SDS011;43451;49.060;10.616;2022-12-07T08:29:05;21.25;;;11.43;;
57627;SDS011;43451;49.060;10.616;2022-12-07T08:31:31;21.58;;;11.65;;
57627;SDS011;43451;49.060;10.616;2022-12-07T08:33:56;23.15;;;11.98;;
57627;SDS011;43451;49.060;10.616;2022-12-07T08:36:22;22.25;;;11.40;;
57627;SDS011;43451;49.060;10.616;2022-12-07T08:38:48;23.92;;;12.45;;
57627;SDS011;43451;49.060;10.616;2022-12-07T08:41:13;23.13;;;11.82;;
57627;SDS011;43451;49.060;10.616;2022-12-07T08:43:39;21.65;;;12.00;;
57627;SDS011;43451;49.060;10.616;2022-12-07T08:46:07;22.45;;;11.68;;
57627;SDS011;43451;49.060;10.616;2022-12-07T08:49:20;22.83;;;11.93;;
57627;SDS011;43451;49.060;10.616;2022-12-07T08:51:31;20.90;;;11.68;;
57627;SDS011;43451;49.060;10.616;2022-12-07T08:53:57;20.13;;;10.80;;
57627;SDS011;43451;49.060;10.616;2022-12-07T08:56:25;19.98;;;11.65;;
57627;SDS011;43451;49.060;10.616;2022-12-07T08:58:51;19.40;;;10.77;;
57627;SDS011;43451;49.060;10.616;2022-12-07T09:01:17;21.00;;;11.25;;
57627;SDS011;43451;49.060;10.616;2022-12-07T09:03:43;20.65;;;11.35;;
57627;SDS011;43451;49.060;10.616;2022-12-07T09:06:08;19.45;;;11.30;;
57627;SDS011;43451;49.060;10.616;2022-12-07T09:08:38;21.80;;;11.48;;
57627;SDS011;43451;49.060;10.616;2022-12-07T09:11:07;20.05;;;10.75;;
57627;SDS011;43451;49.060;10.616;2022-12-07T09:13:33;17.67;;;10.07;;
57627;SDS011;43451;49.060;10.616;2022-12-07T09:15:58;18.98;;;11.20;;
57627;SDS011;43451;49.060;10.616;2022-12-07T09:18:23;18.73;;;11.13;;
57627;SDS011;43451;49.060;10.616;2022-12-07T09:20:49;21.23;;;11.00;;
57627;SDS011;43451;49.060;10.616;2022-12-07T09:23:15;19.55;;;11.18;;
57627;SDS011;43451;49.060;10.616;2022-12-07T09:25:41;18.42;;;10.68;;
57627;SDS011;43451;49.060;10.616;2022-12-07T09:28:06;17.38;;;10.05;;
57627;SDS011;43451;49.060;10.616;2022-12-07T09:30:31;20.10;;;11.00;;
57627;SDS011;43451;49.060;10.616;2022-12-07T09:32:57;19.88;;;10.23;;
57627;SDS011;43451;49.060;10.616;2022-12-07T09:35:23;18.98;;;10.50;;
57627;SDS011;43451;49.060;10.616;2022-12-07T09:37:49;17.83;;;10.02;;
57627;SDS011;43451;49.060;10.616;2022-12-07T09:40:15;16.48;;;10.13;;
57627;SDS011;43451;49.060;10.616;2022-12-07T09:42:43;19.60;;;10.55;;
57627;SDS011;43451;49.060;10.616;2022-12-07T09:45:16;17.75;;;9.82;;
57627;SDS011;43451;49.060;10.616;2022-12-07T09:47:46;17.60;;;9.80;;
57627;SDS011;43451;49.060;10.616;2022-12-07T09:50:15;17.13;;;9.73;;
57627;SDS011;43451;49.060;10.616;2022-12-07T09:52:43;16.48;;;9.45;;
57627;SDS011;43451;49.060;10.616;2022-12-07T09:55:12;17.83;;;9.70;;
57627;SDS011;43451;49.060;10.616;2022-12-07T09:57:40;15.60;;;8.88;;
57627;SDS011;43451;49.060;10.616;2022-12-07T10:00:18;18.53;;;10.50;;
57627;SDS011;43451;49.060;10.616;2022-12-07T10:02:49;16.65;;;9.68;;
57627;SDS011;43451;49.060;10.616;2022-12-07T10:05:26;21.88;;;9.35;;
57627;SDS011;43451;49.060;10.616;2022-12-07T10:07:55;17.40;;;9.30;;
57627;SDS011;43451;49.060;10.616;2022-12-07T10:10:29;16.50;;;9.32;;
57627;SDS011;43451;49.060;10.616;2022-12-07T10:13:03;15.95;;;8.80;;
57627;SDS011;43451;49.060;10.616;2022-12-07T10:20:59;16.02;;;8.10;;
57627;SDS011;43451;49.060;10.616;2022-12-07T10:23:32;15.15;;;8.40;;
57627;SDS011;43451;49.060;10.616;2022-12-07T10:25:58;13.45;;;7.57;;
57627;SDS011;43451;49.060;10.616;2022-12-07T10:28:27;17.20;;;8.15;;
57627;SDS011;43451;49.060;10.616;2022-12-07T10:31:02;18.95;;;8.75;;
57627;SDS011;43451;49.060;10.616;2022-12-07T10:33:53;14.18;;;8.25;;
57627;SDS011;43451;49.060;10.616;2022-12-07T10:36:29;12.95;;;8.07;;
57627;SDS011;43451;49.060;10.616;2022-12-07T10:39:03;13.40;;;8.18;;
57627;SDS011;43451;49.060;10.616;2022-12-07T10:41:59;13.30;;;7.68;;
57627;SDS011;43451;49.060;10.616;2022-12-07T10:44:30;13.45;;;7.72;;
57627;SDS011;43451;49.060;10.616;2022-12-07T10:55:03;12.18;;;7.35;;
57627;SDS011;43451;49.060;10.616;2022-12-07T11:00:25;12.95;;;6.82;;
57627;SDS011;43451;49.060;10.616;2022-12-07T11:05:45;12.38;;;6.80;;
57627;SDS011;43451;49.060;10.616;2022-12-07T11:14:05;11.63;;;7.07;;
57627;SDS011;43451;49.060;10.616;2022-12-07T11:16:48;10.48;;;6.57;;
57627;SDS011;43451;49.060;10.616;2022-12-07T11:22:01;12.95;;;6.97;;
57627;SDS011;43451;49.060;10.616;2022-12-07T11:24:41;11.07;;;6.15;;
57627;SDS011;43451;49.060;10.616;2022-12-07T11:29:49;10.07;;;6.22;;
57627;SDS011;43451;49.060;10.616;2022-12-07T11:37:47;10.15;;;6.40;;
57627;SDS011;43451;49.060;10.616;2022-12-07T11:40:18;12.65;;;7.07;;
57627;SDS011;43451;49.060;10.616;2022-12-07T11:45:32;16.90;;;7.68;;
57627;SDS011;43451;49.060;10.616;2022-12-07T11:48:03;11.13;;;6.85;;
57627;SDS011;43451;49.060;10.616;2022-12-07T11:50:44;11.00;;;6.38;;
57627;SDS011;43451;49.060;10.616;2022-12-07T11:53:17;10.80;;;6.43;;
57627;SDS011;43451;49.060;10.616;2022-12-07T12:06:36;13.30;;;7.18;;
57627;SDS011;43451;49.060;10.616;2022-12-07T12:14:18;11.68;;;7.20;;
57627;SDS011;43451;49.060;10.616;2022-12-07T12:22:34;11.00;;;7.30;;
57627;SDS011;43451;49.060;10.616;2022-12-07T12:25:05;9.98;;;6.30;;
57627;SDS011;43451;49.060;10.616;2022-12-07T12:27:40;9.27;;;6.20;;
57627;SDS011;43451;49.060;10.616;2022-12-07T12:30:26;10.43;;;6.65;;
57627;SDS011;43451;49.060;10.616;2022-12-07T12:36:17;12.65;;;6.63;;
57627;SDS011;43451;49.060;10.616;2022-12-07T12:39:07;10.48;;;6.93;;
57627;SDS011;43451;49.060;10.616;2022-12-07T12:50:21;10.88;;;7.13;;
57627;SDS011;43451;49.060;10.616;2022-12-07T12:53:11;10.60;;;6.55;;
57627;SDS011;43451;49.060;10.616;2022-12-07T12:58:37;10.25;;;6.35;;
57627;SDS011;43451;49.060;10.616;2022-12-07T13:07:08;8.90;;;5.47;;
57627;SDS011;43451;49.060;10.616;2022-12-07T13:09:36;9.15;;;6.15;;
57627;SDS011;43451;49.060;10.616;2022-12-07T13:12:13;10.00;;;6.05;;
57627;SDS011;43451;49.060;10.616;2022-12-07T13:14:42;8.57;;;5.72;;
57627;SDS011;43451;49.060;10.616;2022-12-07T13:20:00;8.88;;;5.78;;
57627;SDS011;43451;49.060;10.616;2022-12-07T13:25:03;9.77;;;6.05;;
57627;SDS011;43451;49.060;10.616;2022-12-07T13:27:30;10.15;;;6.30;;
57627;SDS011;43451;49.060;10.616;2022-12-07T13:29:57;10.05;;;6.40;;
57627;SDS011;43451;49.060;10.616;2022-12-07T13:32:24;11.23;;;6.22;;
57627;SDS011;43451;49.060;10.616;2022-12-07T13:34:51;9.75;;;6.32;;
57627;SDS011;43451;49.060;10.616;2022-12-07T13:39:59;10.73;;;5.95;;
57627;SDS011;43451;49.060;10.616;2022-12-07T13:44:55;9.75;;;6.03;;
57627;SDS011;43451;49.060;10.616;2022-12-07T13:47:41;10.50;;;6.50;;
57627;SDS011;43451;49.060;10.616;2022-12-07T13:50:24;9.07;;;6.28;;
57627;SDS011;43451;49.060;10.616;2022-12-07T13:52:58;8.52;;;5.70;;
57627;SDS011;43451;49.060;10.616;2022-12-07T13:55:24;9.75;;;6.53;;
57627;SDS011;43451;49.060;10.616;2022-12-07T13:57:51;9.45;;;5.85;;
57627;SDS011;43451;49.060;10.616;2022-12-07T14:00:19;11.73;;;6.72;;
57627;SDS011;43451;49.060;10.616;2022-12-07T14:03:04;11.50;;;6.93;;
57627;SDS011;43451;49.060;10.616;2022-12-07T14:06:05;10.57;;;6.68;;
57627;SDS011;43451;49.060;10.616;2022-12-07T14:08:31;11.93;;;6.70;;
57627;SDS011;43451;49.060;10.616;2022-12-07T14:10:56;10.63;;;6.57;;
57627;SDS011;43451;49.060;10.616;2022-12-07T14:13:36;10.10;;;6.78;;
57627;SDS011;43451;49.060;10.616;2022-12-07T14:16:54;9.70;;;7.15;;
57627;SDS011;43451;49.060;10.616;2022-12-07T14:18:58;11.95;;;7.00;;
57627;SDS011;43451;49.060;10.616;2022-12-07T14:21:26;11.95;;;7.18;;
57627;SDS011;43451;49.060;10.616;2022-12-07T14:24:08;13.23;;;7.93;;
57627;SDS011;43451;49.060;10.616;2022-12-07T14:26:40;11.40;;;7.20;;
57627;SDS011;43451;49.060;10.616;2022-12-07T14:34:56;12.40;;;7.85;;
57627;SDS011;43451;49.060;10.616;2022-12-07T14:37:24;11.73;;;7.22;;
57627;SDS011;43451;49.060;10.616;2022-12-07T14:39:50;13.63;;;8.23;;
57627;SDS011;43451;49.060;10.616;2022-12-07T14:42:15;12.70;;;8.23;;
57627;SDS011;43451;49.060;10.616;2022-12-07T14:44:41;13.70;;;8.60;;
57627;SDS011;43451;49.060;10.616;2022-12-07T14:47:08;14.73;;;8.70;;
57627;SDS011;43451;49.060;10.616;2022-12-07T14:49:35;14.50;;;8.57;;
57627;SDS011;43451;49.060;10.616;2022-12-07T14:52:00;13.93;;;8.63;;
57627;SDS011;43451;49.060;10.616;2022-12-07T14:54:26;15.35;;;8.48;;
57627;SDS011;43451;49.060;10.616;2022-12-07T14:56:55;13.35;;;8.57;;
57627;SDS011;43451;49.060;10.616;2022-12-07T14:59:20;14.50;;;9.00;;
57627;SDS011;43451;49.060;10.616;2022-12-07T15:01:46;13.75;;;8.43;;
57627;SDS011;43451;49.060;10.616;2022-12-07T15:04:11;17.42;;;9.40;;
57627;SDS011;43451;49.060;10.616;2022-12-07T15:06:37;17.25;;;9.50;;
57627;SDS011;43451;49.060;10.616;2022-12-07T15:09:03;15.05;;;8.60;;
57627;SDS011;43451;49.060;10.616;2022-12-07T15:11:28;15.32;;;9.20;;
57627;SDS011;43451;49.060;10.616;2022-12-07T15:13:54;15.07;;;9.15;;
57627;SDS011;43451;49.060;10.616;2022-12-07T15:16:36;14.00;;;9.07;;
57627;SDS011;43451;49.060;10.616;2022-12-07T15:19:05;13.50;;;8.48;;
57627;SDS011;43451;49.060;10.616;2022-12-07T15:21:31;16.58;;;9.65;;
57627;SDS011;43451;49.060;10.616;2022-12-07T15:23:56;18.30;;;9.63;;
57627;SDS011;43451;49.060;10.616;2022-12-07T15:26:21;18.00;;;10.02;;
57627;SDS011;43451;49.060;10.616;2022-12-07T15:28:47;14.90;;;9.60;;
57627;SDS011;43451;49.060;10.616;2022-12-07T15:31:16;15.00;;;9.65;;
57627;SDS011;43451;49.060;10.616;2022-12-07T15:33:43;19.33;;;10.13;;
57627;SDS011;43451;49.060;10.616;2022-12-07T15:36:09;18.95;;;10.20;;
57627;SDS011;43451;49.060;10.616;2022-12-07T15:38:46;17.75;;;10.50;;
57627;SDS011;43451;49.060;10.616;2022-12-07T15:41:12;18.35;;;10.85;;
57627;SDS011;43451;49.060;10.616;2022-12-07T15:43:37;17.25;;;10.50;;
57627;SDS011;43451;49.060;10.616;2022-12-07T15:46:21;17.27;;;10.82;;
57627;SDS011;43451;49.060;10.616;2022-12-07T15:48:46;17.95;;;10.57;;
57627;SDS011;43451;49.060;10.616;2022-12-07T15:51:12;21.55;;;10.95;;
57627;SDS011;43451;49.060;10.616;2022-12-07T15:53:37;17.33;;;10.63;;
57627;SDS011;43451;49.060;10.616;2022-12-07T15:56:06;16.90;;;9.88;;
57627;SDS011;43451;49.060;10.616;2022-12-07T15:58:32;16.85;;;10.18;;
57627;SDS011;43451;49.060;10.616;2022-12-07T16:00:58;16.90;;;9.85;;
57627;SDS011;43451;49.060;10.616;2022-12-07T16:03:23;17.88;;;9.98;;
57627;SDS011;43451;49.060;10.616;2022-12-07T16:05:49;18.80;;;10.05;;
57627;SDS011;43451;49.060;10.616;2022-12-07T16:08:15;16.45;;;9.85;;
57627;SDS011;43451;49.060;10.616;2022-12-07T16:10:41;17.02;;;10.55;;
57627;SDS011;43451;49.060;10.616;2022-12-07T16:15:41;19.90;;;10.63;;
57627;SDS011;43451;49.060;10.616;2022-12-07T16:18:07;17.77;;;10.40;;
57627;SDS011;43451;49.060;10.616;2022-12-07T16:20:33;19.88;;;11.13;;
57627;SDS011;43451;49.060;10.616;2022-12-07T16:22:59;19.23;;;10.77;;
57627;SDS011;43451;49.060;10.616;2022-12-07T16:25:24;15.55;;;10.32;;
57627;SDS011;43451;49.060;10.616;2022-12-07T16:27:53;17.67;;;10.30;;
57627;SDS011;43451;49.060;10.616;2022-12-07T16:30:19;17.52;;;10.30;;
57627;SDS011;43451;49.060;10.616;2022-12-07T16:32:44;17.73;;;10.02;;
57627;SDS011;43451;49.060;10.616;2022-12-07T16:35:10;15.80;;;9.73;;
57627;SDS011;43451;49.060;10.616;2022-12-07T16:37:36;20.27;;;10.18;;
57627;SDS011;43451;49.060;10.616;2022-12-07T16:40:02;16.17;;;9.27;;
57627;SDS011;43451;49.060;10.616;2022-12-07T16:42:32;16.88;;;9.20;;
57627;SDS011;43451;49.060;10.616;2022-12-07T16:44:58;15.43;;;9.13;;
57627;SDS011;43451;49.060;10.616;2022-12-07T16:47:24;15.35;;;9.23;;